Time;durP1;ratioP1;P1;durP2;ratioP2;P2;SDS_P1;SDS_P2;PMS_P1;PMS_P2;Temp;Humidity;BMP_temperature;BMP_pressure;BME280_temperature;BME280_humidity;BME280_pressure;Samples;Min_cycle;Max_cycle;Signal;HPM_P1;HPM_P2
2022/07/07 00:01:11;;;;;;;37.57;26.37;;;;;;;17.23;97.29;97582.59;10381858;28;20022;-56
2022/07/07 00:06:10;;;;;;;39.33;26.80;;;;;;;17.28;97.91;97604.28;10388466;28;20089;-56
2022/07/07 00:11:09;;;;;;;34.25;26.27;;;;;;;17.24;98.20;97597.41;10384892;28;20068;-56
2022/07/07 00:16:08;;;;;;;36.75;25.83;;;;;;;17.35;98.19;97604.06;10387526;28;20052;-56
2022/07/07 00:21:07;;;;;;;36.53;26.75;;;;;;;17.42;97.81;97601.22;10385896;28;20134;-56
2022/07/07 00:26:06;;;;;;;35.40;26.88;;;;;;;17.42;98.42;97598.59;10389948;28;20061;-56
2022/07/07 00:31:06;;;;;;;33.10;24.25;;;;;;;17.35;98.50;97608.44;10398375;28;20072;-56
2022/07/07 00:36:07;;;;;;;40.10;25.83;;;;;;;17.35;98.11;97603.19;10380573;28;20057;-56
2022/07/07 00:41:06;;;;;;;33.05;25.48;;;;;;;17.35;97.93;97611.06;10420831;28;20083;-56
2022/07/07 00:46:07;;;;;;;33.67;23.88;;;;;;;17.31;97.86;97605.06;10421274;28;20064;-56
2022/07/07 00:51:09;;;;;;;36.30;24.85;;;;;;;17.25;97.54;97597.38;10421828;28;20068;-56
2022/07/07 00:56:08;;;;;;;33.13;23.60;;;;;;;17.22;97.46;97586.97;10420802;28;20072;-56
2022/07/07 01:01:08;;;;;;;35.83;23.67;;;;;;;17.23;97.15;97586.06;10421197;28;20449;-56
2022/07/07 01:06:07;;;;;;;35.67;23.80;;;;;;;17.20;97.15;97591.41;10421231;28;20056;-56
2022/07/07 01:11:06;;;;;;;33.40;25.25;;;;;;;17.14;97.25;97581.09;10420093;28;20067;-56
2022/07/07 01:16:05;;;;;;;45.88;30.15;;;;;;;17.01;98.39;97595.50;10418297;28;20055;-59
2022/07/07 01:21:05;;;;;;;;;;;;;;;16.90;98.92;97599.25;10419026;28;20034;-56
2022/07/07 01:26:04;;;;;;;51.85;32.20;;;;;;;16.88;99.09;97597.59;10379844;28;19955;-56
2022/07/07 01:31:03;;;;;;;53.22;33.40;;;;;;;16.86;99.15;97597.66;10378138;28;20061;-56
2022/07/07 01:36:02;;;;;;;47.45;32.10;;;;;;;16.87;99.08;97598.50;10377114;28;20411;-56
2022/07/07 01:41:01;;;;;;;45.42;29.13;;;;;;;16.87;98.92;97599.34;10378797;28;20073;-56
2022/07/07 01:46:00;;;;;;;40.95;26.80;;;;;;;16.83;99.10;97597.72;10408198;28;20036;-56
2022/07/07 01:50:59;;;;;;;;;;;;;;;16.68;99.67;97600.75;10419389;28;20477;-56
2022/07/07 01:56:05;;;;;;;50.40;29.43;;;;;;;16.67;99.68;97591.16;10418568;28;20451;-56
2022/07/07 02:01:04;;;;;;;36.72;25.23;;;;;;;16.39;100.00;97591.91;10418216;28;20486;-56
2022/07/07 02:06:03;;;;;;;34.78;25.95;;;;;;;16.46;100.00;97600.47;10418204;28;20416;-56
2022/07/07 02:11:15;;;;;;;39.22;27.40;;;;;;;16.49;100.00;97593.41;10417331;28;20064;-56
2022/07/07 02:16:15;;;;;;;43.58;29.45;;;;;;;16.47;100.00;97589.97;10417766;28;20076;-56
2022/07/07 02:21:15;;;;;;;42.85;30.13;;;;;;;16.54;100.00;97601.13;10416866;28;20070;-56
2022/07/07 02:26:15;;;;;;;44.78;30.55;;;;;;;16.50;100.00;97597.72;10417790;28;20499;-56
2022/07/07 02:31:14;;;;;;;47.35;30.08;;;;;;;16.58;100.00;97588.81;10417102;28;20612;-56
2022/07/07 02:36:13;;;;;;;44.83;31.25;;;;;;;16.66;100.00;97592.94;10393743;28;20072;-56
2022/07/07 02:41:12;;;;;;;42.80;29.17;;;;;;;16.77;100.00;97597.00;10375940;28;20089;-56
2022/07/07 02:46:11;;;;;;;37.22;26.65;;;;;;;16.83;100.00;97589.00;10375464;28;20033;-56
2022/07/07 02:51:10;;;;;;;;;;;;;;;16.89;100.00;97587.06;10375029;28;20407;-56
2022/07/07 02:56:09;;;;;;;33.87;25.60;;;;;;;16.99;100.00;97592.06;10376576;28;19916;-56
2022/07/07 03:01:07;;;;;;;33.03;23.52;;;;;;;16.92;100.00;97586.97;10374385;28;20507;-56
2022/07/07 03:06:06;;;;;;;32.95;23.58;;;;;;;16.99;99.81;97587.66;10389394;28;20501;-56
2022/07/07 03:11:06;;;;;;;;;;;;;;;16.91;99.60;97590.50;10416175;28;20065;-56
2022/07/07 03:16:06;;;;;;;31.00;20.10;;;;;;;16.38;100.00;97561.41;10415254;28;19962;-56
2022/07/07 03:21:05;;;;;;;32.67;20.65;;;;;;;16.43;100.00;97598.81;10414672;28;20055;-56
2022/07/07 03:26:04;;;;;;;38.80;21.35;;;;;;;16.35;100.00;97595.53;10415495;28;20017;-56
2022/07/07 03:31:02;;;;;;;;;;;;;;;16.44;100.00;97595.31;10415038;28;20398;-56
2022/07/07 03:36:01;;;;;;;37.47;24.20;;;;;;;16.49;100.00;97589.94;10414518;28;19912;-56
2022/07/07 03:41:01;;;;;;;36.78;25.52;;;;;;;16.50;99.67;97587.25;10414265;28;20177;-56
2022/07/07 03:46:00;;;;;;;35.22;26.67;;;;;;;16.61;99.47;97596.59;10414446;28;20040;-56
2022/07/07 03:50:59;;;;;;;;;;;;;;;16.75;99.34;97610.16;10414852;28;20111;-56
2022/07/07 03:55:58;;;;;;;36.93;26.13;;;;;;;16.85;99.05;97616.88;10408784;28;19913;-56
2022/07/07 04:00:58;;;;;;;;;;;;;;;16.85;99.17;97605.56;10385248;28;20040;-56
2022/07/07 04:05:56;;;;;;;40.35;28.88;;;;;;;16.98;99.06;97611.28;10388786;28;19955;-56
2022/07/07 04:10:55;;;;;;;39.88;27.77;;;;;;;17.09;98.80;97611.84;10379785;28;20033;-56
2022/07/07 04:15:57;;;;;;;;;;;;;;;17.19;98.71;97607.16;10381239;28;20439;-56
2022/07/07 04:20:56;;;;;;;40.63;29.50;;;;;;;17.31;98.48;97615.53;10381248;28;20351;-56
2022/07/07 04:25:55;;;;;;;40.08;29.77;;;;;;;17.52;97.93;97607.94;10383830;28;20546;-56
2022/07/07 04:30:54;;;;;;;;;;;;;;;17.56;97.35;97606.91;10381947;28;20411;-56
2022/07/07 04:35:53;;;;;;;37.57;27.33;;;;;;;17.57;96.80;97616.50;10380875;28;19963;-56
2022/07/07 04:40:52;;;;;;;33.40;23.67;;;;;;;17.66;96.13;97621.47;10382237;28;20119;-56
2022/07/07 04:45:51;;;;;;;26.42;19.77;;;;;;;17.51;95.69;97627.19;10390237;28;20475;-56
2022/07/07 04:50:50;;;;;;;32.28;22.70;;;;;;;17.54;95.72;97632.31;10381187;28;20423;-56
2022/07/07 04:55:49;;;;;;;31.98;22.20;;;;;;;17.61;95.86;97628.59;10389531;28;20020;-56
2022/07/07 05:00:48;;;;;;;30.20;21.60;;;;;;;17.63;95.59;97637.28;10392554;28;20035;-56
2022/07/07 05:05:47;;;;;;;25.52;19.67;;;;;;;17.69;95.46;97634.50;10395072;28;20064;-56
2022/07/07 05:10:46;;;;;;;25.60;19.70;;;;;;;17.95;95.24;97633.69;10385023;28;20040;-56
2022/07/07 05:15:45;;;;;;;22.23;16.88;;;;;;;18.11;94.30;97639.28;10398286;28;20568;-57
2022/07/07 05:20:44;;;;;;;21.08;16.48;;;;;;;18.21;93.41;97633.75;10397450;28;20633;-56
2022/07/07 05:25:42;;;;;;;25.88;16.05;;;;;;;18.28;92.74;97636.09;10381990;28;20563;-56
2022/07/07 05:30:42;;;;;;;23.75;16.33;;;;;;;18.52;92.33;97639.63;10407135;28;20577;-56
2022/07/07 05:35:41;;;;;;;21.13;15.70;;;;;;;18.88;92.17;97638.41;10400441;28;20515;-56
2022/07/07 05:40:40;;;;;;;19.48;14.18;;;;;;;19.32;90.67;97647.31;10398138;28;20503;-56
2022/07/07 05:45:38;;;;;;;20.80;14.77;;;;;;;19.64;89.06;97645.22;10396376;28;20335;-56
2022/07/07 05:50:37;;;;;;;18.27;15.52;;;;;;;19.85;86.78;97640.91;10376776;28;20047;-56
2022/07/07 05:55:37;;;;;;;22.23;15.60;;;;;;;19.90;85.72;97635.44;10401043;28;20585;-56
2022/07/07 06:00:36;;;;;;;20.50;16.40;;;;;;;19.72;85.32;97645.81;10386362;28;20067;-56
2022/07/07 06:05:34;;;;;;;23.17;17.25;;;;;;;19.54;86.29;97639.44;10379322;28;20032;-56
2022/07/07 06:10:34;;;;;;;21.40;17.80;;;;;;;19.69;86.80;97642.41;10391756;28;20056;-56
2022/07/07 06:15:33;;;;;;;23.45;18.73;;;;;;;19.66;86.24;97657.41;10374439;28;20057;-56
2022/07/07 06:20:32;;;;;;;24.60;17.73;;;;;;;19.74;86.36;97656.25;10389211;28;20087;-56
2022/07/07 06:25:31;;;;;;;21.73;18.30;;;;;;;19.89;85.87;97652.19;10372558;28;20056;-56
2022/07/07 06:30:30;;;;;;;20.15;17.88;;;;;;;20.02;84.98;97658.63;10384838;28;20064;-56
2022/07/07 06:35:29;;;;;;;22.35;17.88;;;;;;;20.21;84.97;97659.63;10381097;28;20078;-56
2022/07/07 06:40:28;;;;;;;23.30;17.40;;;;;;;20.52;83.73;97657.47;10381420;28;20076;-57
2022/07/07 06:45:29;;;;;;;18.35;15.68;;;;;;;20.77;80.60;97657.28;10381183;28;20115;-56
2022/07/07 06:50:28;;;;;;;20.98;13.90;;;;;;;21.18;80.43;97646.69;10397916;28;20068;-56
2022/07/07 06:55:27;;;;;;;15.02;11.20;;;;;;;21.57;76.41;97659.88;10381274;28;20108;-56
2022/07/07 07:00:26;;;;;;;13.23;9.90;;;;;;;21.91;70.92;97666.16;10374376;28;20025;-57
2022/07/07 07:05:25;;;;;;;4.53;4.03;;;;;;;22.04;60.72;97666.44;10410509;28;20487;-56
2022/07/07 07:10:24;;;;;;;6.13;4.28;;;;;;;22.28;61.46;97667.91;10380945;28;20064;-56
2022/07/07 07:15:23;;;;;;;4.90;4.30;;;;;;;22.28;56.60;97661.75;10374513;28;20033;-56
2022/07/07 07:20:22;;;;;;;5.63;4.53;;;;;;;22.31;58.38;97658.97;10378032;28;20063;-56
2022/07/07 07:25:21;;;;;;;5.40;4.75;;;;;;;22.28;56.95;97657.31;10403082;28;20048;-56
2022/07/07 07:30:20;;;;;;;8.80;5.47;;;;;;;22.59;56.92;97650.47;10402819;28;20016;-56
2022/07/07 07:35:19;;;;;;;6.22;5.00;;;;;;;22.80;55.83;97652.03;10398179;28;20518;-56
2022/07/07 07:40:18;;;;;;;6.32;4.80;;;;;;;22.88;54.51;97656.06;10414875;28;20518;-57
2022/07/07 07:45:18;;;;;;;5.57;4.18;;;;;;;22.87;53.12;97657.03;10413733;28;20044;-56
2022/07/07 07:50:20;;;;;;;6.50;4.78;;;;;;;22.89;53.63;97657.81;10410037;28;20060;-57
2022/07/07 07:55:20;;;;;;;4.80;4.03;;;;;;;22.89;52.18;97655.16;10415558;28;20060;-57
2022/07/07 08:00:22;;;;;;;7.93;3.55;;;;;;;22.84;50.27;97649.25;10383520;28;20057;-56
2022/07/07 08:05:21;;;;;;;5.30;4.07;;;;;;;22.87;50.30;97649.94;10405492;28;20028;-56
2022/07/07 08:10:20;;;;;;;3.35;3.05;;;;;;;22.95;47.92;97650.41;10401681;28;20041;-56
2022/07/07 08:15:20;;;;;;;4.55;2.70;;;;;;;23.14;48.57;97652.94;10373219;28;20037;-56
2022/07/07 08:20:19;;;;;;;6.30;4.05;;;;;;;23.39;49.38;97656.88;10373431;28;20068;-57
2022/07/07 08:25:18;;;;;;;7.57;2.90;;;;;;;23.40;47.05;97669.19;10406000;28;20511;-57
2022/07/07 08:30:17;;;;;;;2.72;2.50;;;;;;;23.34;47.25;97664.22;10416909;28;20041;-56
2022/07/07 08:35:17;;;;;;;4.93;2.70;;;;;;;23.20;47.12;97663.16;10417030;28;20064;-56
2022/07/07 08:40:16;;;;;;;4.70;2.72;;;;;;;23.28;47.36;97670.72;10416618;28;20076;-56
2022/07/07 08:45:15;;;;;;;4.38;2.80;;;;;;;23.46;46.78;97666.19;10414274;28;20225;-57
2022/07/07 08:50:15;;;;;;;4.95;2.58;;;;;;;23.48;46.59;97667.00;10421468;28;20044;-57
2022/07/07 08:55:15;;;;;;;3.50;2.60;;;;;;;23.57;47.69;97666.50;10415049;28;20098;-56
2022/07/07 09:00:14;;;;;;;4.43;3.00;;;;;;;23.53;47.26;97664.94;10400753;28;20052;-57
2022/07/07 09:05:13;;;;;;;4.22;2.80;;;;;;;23.56;46.98;97669.22;10404594;28;20079;-57
2022/07/07 09:10:28;;;;;;;3.88;2.70;;;;;;;23.98;47.24;97666.00;10417678;28;20020;-56
2022/07/07 09:15:27;;;;;;;6.45;2.92;;;;;;;24.15;45.80;97672.13;10417750;28;20507;-57
2022/07/07 09:20:26;;;;;;;7.40;3.00;;;;;;;24.48;43.98;97675.50;10417663;28;20074;-57
2022/07/07 09:25:26;;;;;;;4.72;3.00;;;;;;;24.70;44.85;97668.91;10414957;28;20009;-57
2022/07/07 09:30:31;;;;;;;3.15;2.72;;;;;;;24.62;44.55;97669.38;10413767;28;20052;-57
2022/07/07 09:40:52;;;;;;;;;;;;;;;24.64;43.11;97661.34;10413976;28;20072;-57
2022/07/07 09:46:10;;;;;;;4.07;2.80;;;;;;;24.96;43.91;97656.75;10412888;28;19981;-56
2022/07/07 09:51:22;;;;;;;3.00;2.80;;;;;;;25.29;43.86;97656.50;10414841;28;20063;-57
2022/07/07 09:56:27;;;;;;;2.60;2.40;;;;;;;25.84;44.99;97648.66;10415451;28;20060;-57
2022/07/07 10:01:29;;;;;;;6.25;3.13;;;;;;;26.32;43.56;97647.28;10401310;28;20553;-55
2022/07/07 10:06:30;;;;;;;2.60;2.40;;;;;;;26.53;40.17;97644.97;10415420;28;20071;-57
2022/07/07 10:11:36;;;;;;;4.82;2.65;;;;;;;26.15;41.22;97629.72;10417784;28;20060;-57
2022/07/07 10:16:36;;;;;;;7.32;3.20;;;;;;;26.37;41.82;97636.31;10417978;28;20064;-57
2022/07/07 10:21:36;;;;;;;4.00;2.83;;;;;;;26.54;40.96;97630.72;10417579;28;20055;-55
2022/07/07 10:26:38;;;;;;;2.97;2.67;;;;;;;26.15;41.54;97634.19;10418556;28;20487;-55
2022/07/07 10:31:38;;;;;;;2.83;2.58;;;;;;;26.28;41.27;97621.81;10418975;28;20067;-55
2022/07/07 10:37:07;;;;;;;3.20;2.90;;;;;;;26.39;41.15;97633.53;10418506;28;20135;-56
2022/07/07 10:42:15;;;;;;;5.00;2.88;;;;;;;26.16;40.78;97630.59;10417121;28;20076;-55
2022/07/07 10:47:17;;;;;;;4.72;2.63;;;;;;;26.09;41.06;97632.81;10416888;28;20060;-55
2022/07/07 10:52:22;;;;;;;4.00;2.60;;;;;;;26.23;41.33;97615.09;10414991;28;20063;-55
2022/07/07 10:57:23;;;;;;;3.15;2.85;;;;;;;26.50;40.30;97601.75;10416439;28;20072;-55
2022/07/07 11:02:36;;;;;;;3.45;2.53;;;;;;;26.33;39.79;97595.75;10414259;28;20064;-55
2022/07/07 11:07:35;;;;;;;2.95;2.65;;;;;;;26.31;40.62;97591.50;10415192;28;20056;-55
2022/07/07 11:12:48;;;;;;;3.35;2.50;;;;;;;26.47;40.75;97591.31;10416106;28;20064;-56
2022/07/07 11:17:53;;;;;;;2.78;2.30;;;;;;;26.38;38.83;97586.63;10416289;28;20056;-56
2022/07/07 11:23:09;;;;;;;3.00;2.70;;;;;;;26.27;38.52;97590.84;10416715;28;20071;-56
2022/07/07 11:28:09;;;;;;;3.63;2.08;;;;;;;26.21;37.80;97585.94;10416467;28;20060;-56
2022/07/07 11:33:09;;;;;;;3.63;2.97;;;;;;;26.15;36.96;97581.84;10415721;28;20060;-56
2022/07/07 11:38:11;;;;;;;4.20;2.30;;;;;;;25.83;37.64;97565.41;10416437;28;20531;-56
2022/07/07 11:43:23;;;;;;;2.60;2.40;;;;;;;26.14;37.83;97564.19;10393331;28;20081;-56
2022/07/07 11:48:22;;;;;;;3.45;3.15;;;;;;;26.40;36.99;97558.94;10374469;28;20065;-56
2022/07/07 11:53:22;;;;;;;2.67;2.47;;;;;;;26.49;37.27;97557.47;10404420;28;20059;-57
2022/07/07 11:58:21;;;;;;;2.55;2.30;;;;;;;26.73;37.29;97546.94;10395300;28;20076;-57
2022/07/07 12:03:28;;;;;;;3.20;2.10;;;;;;;26.50;35.16;97538.72;10379839;28;20060;-56
2022/07/07 12:08:35;;;;;;;2.78;2.10;;;;;;;26.55;36.03;97535.75;10373388;28;20069;-56
2022/07/07 12:13:34;;;;;;;2.40;2.20;;;;;;;26.68;37.00;97535.75;10373761;28;20531;-56
2022/07/07 12:18:39;;;;;;;2.90;2.40;;;;;;;26.71;35.58;97535.53;10373095;28;20499;-56
2022/07/07 12:23:43;;;;;;;4.10;2.20;;;;;;;26.58;35.64;97538.19;10380305;28;20079;-56
2022/07/07 12:28:43;;;;;;;2.53;2.22;;;;;;;26.40;35.52;97526.19;10381171;28;20060;-56
2022/07/07 12:33:42;;;;;;;3.97;2.60;;;;;;;26.62;36.43;97528.19;10381424;28;20076;-56
2022/07/07 12:38:51;;;;;;;2.28;2.10;;;;;;;26.81;36.05;97530.41;10381474;28;20079;-56
2022/07/07 12:43:52;;;;;;;3.97;2.22;;;;;;;26.75;34.60;97521.91;10398597;28;20071;-56
2022/07/07 12:48:52;;;;;;;3.92;2.33;;;;;;;26.88;35.12;97527.22;10421662;28;20143;-56
2022/07/07 12:53:53;;;;;;;4.05;2.15;;;;;;;27.05;34.89;97517.19;10421882;28;20068;-56
2022/07/07 12:58:53;;;;;;;2.28;2.08;;;;;;;27.19;34.26;97519.72;10420956;28;20063;-56
2022/07/07 13:03:55;;;;;;;2.28;2.08;;;;;;;27.32;33.45;97517.00;10421403;28;20094;-56
2022/07/07 13:08:54;;;;;;;5.90;2.42;;;;;;;27.35;33.30;97524.75;10419401;28;20593;-55
2022/07/07 13:13:53;;;;;;;7.57;2.10;;;;;;;27.20;33.69;97518.75;10420016;28;20060;-56
2022/07/07 13:18:52;;;;;;;9.98;2.92;;;;;;;27.48;33.90;97519.44;10418987;28;20355;-55
2022/07/07 13:23:50;;;;;;;5.10;2.85;;;;;;;27.52;34.68;97516.44;10414335;28;20115;-55
2022/07/07 13:28:50;;;;;;;3.15;2.55;;;;;;;27.57;35.79;97510.75;10421060;28;20155;-56
2022/07/07 13:33:49;;;;;;;4.07;2.83;;;;;;;27.64;35.52;97520.00;10418713;28;20071;-55
2022/07/07 13:38:48;;;;;;;4.72;3.05;;;;;;;27.74;36.70;97514.84;10423097;28;20119;-57
2022/07/07 13:43:47;;;;;;;2.90;2.70;;;;;;;28.10;37.26;97510.38;10418407;28;20075;-55
2022/07/07 13:48:46;;;;;;;4.75;3.20;;;;;;;28.12;37.92;97519.97;10419687;28;20036;-56
2022/07/07 13:53:45;;;;;;;3.63;3.20;;;;;;;28.33;37.73;97511.28;10417871;28;20040;-56
2022/07/07 13:58:44;;;;;;;5.88;3.85;;;;;;;27.91;39.68;97526.91;10419212;28;20044;-56
2022/07/07 14:03:42;;;;;;;4.10;3.58;;;;;;;27.26;40.51;97520.97;10420654;28;20065;-56
2022/07/07 14:08:42;;;;;;;5.80;4.25;;;;;;;26.87;43.63;97528.19;10419909;28;20116;-56
2022/07/07 14:13:41;;;;;;;31.15;6.00;;;;;;;26.46;43.61;97523.91;10419928;28;20064;-56
2022/07/07 14:18:40;;;;;;;8.82;4.68;;;;;;;26.73;44.60;97507.00;10420219;28;20495;-56
2022/07/07 14:23:39;;;;;;;4.90;4.40;;;;;;;26.83;42.04;97500.09;10419611;28;20055;-56
2022/07/07 14:28:38;;;;;;;6.50;4.13;;;;;;;26.94;42.21;97505.50;10419396;28;20103;-56
2022/07/07 14:33:37;;;;;;;5.65;3.90;;;;;;;27.02;40.88;97506.75;10419564;28;20193;-56
2022/07/07 14:38:36;;;;;;;9.38;4.13;;;;;;;26.96;41.24;97500.91;10419004;28;20499;-56
2022/07/07 14:43:36;;;;;;;9.27;4.40;;;;;;;27.10;41.87;97497.25;10398014;28;20052;-56
2022/07/07 14:48:36;;;;;;;5.22;4.13;;;;;;;27.23;41.00;97494.53;10417643;28;20052;-56
2022/07/07 14:53:35;;;;;;;4.60;3.90;;;;;;;26.98;40.54;97495.50;10418070;28;20056;-56
2022/07/07 14:58:34;;;;;;;6.03;4.20;;;;;;;26.80;41.43;97492.28;10418071;28;20075;-56
2022/07/07 15:03:33;;;;;;;6.15;3.75;;;;;;;26.91;41.99;97495.06;10417213;28;20101;-56
2022/07/07 15:08:32;;;;;;;4.70;3.80;;;;;;;26.80;42.41;97497.63;10416760;28;20393;-56
2022/07/07 15:13:31;;;;;;;6.88;4.00;;;;;;;26.89;42.57;97501.47;10415741;28;20064;-57
2022/07/07 15:18:30;;;;;;;4.47;4.05;;;;;;;26.87;43.30;97503.38;10415565;28;20076;-55
2022/07/07 15:23:31;;;;;;;5.85;4.10;;;;;;;26.41;44.29;97507.44;10415145;28;20060;-56
2022/07/07 15:28:30;;;;;;;6.05;5.03;;;;;;;26.13;45.69;97511.09;10414553;28;20091;-56
2022/07/07 15:33:29;;;;;;;4.47;3.92;;;;;;;25.71;44.44;97519.22;10415193;28;20471;-56
2022/07/07 15:38:29;;;;;;;6.00;4.50;;;;;;;25.59;47.27;97514.69;10415007;28;20133;-55
2022/07/07 15:43:28;;;;;;;4.60;3.90;;;;;;;25.38;47.01;97516.06;10415340;28;20071;-56
2022/07/07 15:48:27;;;;;;;5.53;4.40;;;;;;;25.27;47.88;97512.31;10414953;28;20026;-56
2022/07/07 15:53:29;;;;;;;5.18;4.50;;;;;;;25.19;48.16;97527.88;10415053;28;20071;-56
2022/07/07 15:58:29;;;;;;;6.47;4.78;;;;;;;25.04;48.97;97519.09;10413720;28;20078;-56
2022/07/07 16:03:28;;;;;;;6.28;4.95;;;;;;;24.97;49.42;97527.56;10414274;28;20547;-56
2022/07/07 16:08:27;;;;;;;7.50;4.18;;;;;;;24.79;49.03;97525.06;10414813;28;20502;-56
2022/07/07 16:13:26;;;;;;;6.85;4.72;;;;;;;24.79;49.14;97530.38;10414563;28;20388;-56
2022/07/07 16:18:24;;;;;;;5.47;4.50;;;;;;;24.92;49.40;97532.28;10413976;28;20080;-56
2022/07/07 16:23:23;;;;;;;6.38;4.70;;;;;;;24.82;49.77;97531.97;10412739;28;20039;-56
2022/07/07 16:28:22;;;;;;;6.93;5.10;;;;;;;24.81;51.01;97538.25;10414212;28;20511;-56
2022/07/07 16:33:22;;;;;;;8.35;4.80;;;;;;;24.56;51.67;97528.28;10414065;28;20028;-56
2022/07/07 16:38:21;;;;;;;4.60;4.20;;;;;;;24.62;51.60;97526.09;10413580;28;20076;-56
2022/07/07 16:43:20;;;;;;;5.75;4.68;;;;;;;24.71;51.46;97527.34;10413704;28;20040;-56
2022/07/07 16:48:19;;;;;;;6.80;4.70;;;;;;;24.87;51.24;97533.44;10413510;28;20107;-56
2022/07/07 16:53:19;;;;;;;6.20;4.70;;;;;;;24.76;51.15;97522.59;10413900;28;20072;-56
2022/07/07 16:58:18;;;;;;;7.13;5.10;;;;;;;24.57;51.97;97536.16;10413404;28;20071;-56
2022/07/07 17:03:17;;;;;;;6.53;4.35;;;;;;;24.46;52.40;97539.44;10413578;28;20067;-56
2022/07/07 17:08:17;;;;;;;7.47;4.63;;;;;;;24.48;52.48;97532.25;10417843;28;20027;-55
2022/07/07 17:13:16;;;;;;;6.95;5.53;;;;;;;24.47;52.66;97530.56;10421141;28;20064;-56
2022/07/07 17:18:15;;;;;;;7.75;5.60;;;;;;;24.56;53.06;97533.59;10420933;28;20063;-56
2022/07/07 17:23:14;;;;;;;7.28;5.60;;;;;;;24.60;54.16;97537.75;10420227;28;20406;-55
2022/07/07 17:28:13;;;;;;;8.13;6.05;;;;;;;24.53;54.97;97541.75;10420020;28;20067;-56
2022/07/07 17:33:12;;;;;;;8.90;5.90;;;;;;;24.53;54.65;97537.28;10419936;28;20151;-56
2022/07/07 17:38:11;;;;;;;8.88;5.90;;;;;;;24.37;54.61;97536.50;10419798;28;20047;-56
2022/07/07 17:43:10;;;;;;;12.32;7.13;;;;;;;24.31;55.03;97544.81;10419580;28;20569;-55
2022/07/07 17:48:09;;;;;;;10.02;6.80;;;;;;;24.13;55.96;97557.38;10419366;28;20437;-55
2022/07/07 17:53:09;;;;;;;9.98;7.10;;;;;;;23.92;56.68;97551.53;10419426;28;20066;-55
2022/07/07 17:58:07;;;;;;;9.13;7.00;;;;;;;23.64;57.91;97556.59;10419134;28;20063;-55
2022/07/07 18:03:07;;;;;;;9.20;6.15;;;;;;;23.21;62.16;97566.94;10417680;28;20151;-56
2022/07/07 18:08:05;;;;;;;9.05;5.70;;;;;;;23.09;62.28;97561.44;10418824;28;20068;-55
2022/07/07 18:13:04;;;;;;;9.32;6.45;;;;;;;23.01;63.09;97573.31;10418670;28;20031;-56
2022/07/07 18:18:04;;;;;;;11.90;7.28;;;;;;;22.85;64.55;97583.00;10417500;28;20051;-56
2022/07/07 18:23:03;;;;;;;11.52;7.00;;;;;;;22.50;66.57;97583.03;10418345;28;20068;-55
2022/07/07 18:28:02;;;;;;;9.93;6.07;;;;;;;22.34;67.17;97593.59;10417941;28;20044;-55
2022/07/07 18:33:01;;;;;;;11.02;6.63;;;;;;;22.25;67.87;97601.09;10417328;28;20483;-55
2022/07/07 18:38:00;;;;;;;8.85;6.78;;;;;;;22.08;68.24;97596.66;10417114;28;20117;-55
2022/07/07 18:43:00;;;;;;;8.45;6.35;;;;;;;21.95;68.85;97597.25;10417396;28;20059;-55
2022/07/07 18:47:59;;;;;;;7.95;5.97;;;;;;;21.81;69.58;97606.78;10415401;28;20060;-55
2022/07/07 18:52:58;;;;;;;7.75;5.95;;;;;;;21.59;69.88;97607.81;10416919;28;20044;-56
2022/07/07 18:57:57;;;;;;;9.98;6.38;;;;;;;21.47;70.31;97611.88;10415791;28;20150;-55
2022/07/07 19:02:56;;;;;;;7.68;6.15;;;;;;;21.30;71.00;97610.03;10416105;28;20422;-55
2022/07/07 19:07:55;;;;;;;9.80;6.10;;;;;;;21.23;71.56;97623.59;10416056;28;20083;-55
2022/07/07 19:12:55;;;;;;;7.13;6.35;;;;;;;21.13;71.77;97624.00;10416411;28;20068;-55
2022/07/07 19:17:54;;;;;;;8.43;6.68;;;;;;;21.04;72.24;97627.06;10415817;28;20494;-55
2022/07/07 19:22:53;;;;;;;11.20;6.55;;;;;;;20.95;72.28;97624.81;10415896;28;20562;-55
2022/07/07 19:27:52;;;;;;;11.40;6.68;;;;;;;20.85;72.49;97623.53;10419591;28;20392;-55
2022/07/07 19:32:51;;;;;;;10.00;8.00;;;;;;;20.78;72.99;97627.38;10418646;28;20519;-55
2022/07/07 19:37:50;;;;;;;8.90;7.25;;;;;;;20.68;73.44;97621.63;10419284;28;20414;-55
2022/07/07 19:42:51;;;;;;;11.18;6.78;;;;;;;20.60;73.81;97623.75;10418889;28;20686;-56
2022/07/07 19:47:51;;;;;;;9.48;7.38;;;;;;;20.48;74.27;97619.88;10418710;28;20055;-56
2022/07/07 19:52:51;;;;;;;11.13;7.68;;;;;;;20.33;74.75;97621.34;10418092;28;20487;-56
2022/07/07 19:57:50;;;;;;;11.70;7.07;;;;;;;20.19;74.92;97608.75;10417506;28;20099;-56
2022/07/07 20:02:49;;;;;;;7.53;6.20;;;;;;;20.08;75.17;97614.47;10417768;28;20037;-56
2022/07/07 20:07:48;;;;;;;7.85;6.38;;;;;;;19.90;75.42;97609.09;10417169;28;20029;-56
2022/07/07 20:12:47;;;;;;;8.43;6.25;;;;;;;19.74;75.21;97616.75;10418389;28;20036;-56
2022/07/07 20:17:46;;;;;;;7.95;6.57;;;;;;;19.60;75.91;97623.47;10407061;28;20397;-56
2022/07/07 20:22:45;;;;;;;10.65;7.28;;;;;;;19.48;76.81;97623.03;10387942;28;20036;-56
2022/07/07 20:27:45;;;;;;;9.43;7.53;;;;;;;19.32;77.95;97618.38;10385793;28;20068;-56
2022/07/07 20:32:44;;;;;;;11.75;8.00;;;;;;;19.19;78.66;97610.09;10383435;28;20076;-56
2022/07/07 20:37:43;;;;;;;10.77;7.68;;;;;;;19.12;79.03;97613.00;10387716;28;20048;-56
2022/07/07 20:42:42;;;;;;;11.32;8.52;;;;;;;19.02;79.48;97615.13;10388338;28;20518;-56
2022/07/07 20:47:42;;;;;;;10.20;8.07;;;;;;;18.98;79.79;97611.75;10389043;28;20064;-56
2022/07/07 20:52:42;;;;;;;9.98;7.35;;;;;;;18.92;79.70;97616.38;10410096;28;20072;-56
2022/07/07 20:57:41;;;;;;;10.27;6.75;;;;;;;18.89;79.32;97609.44;10422269;28;20071;-56
2022/07/07 21:02:40;;;;;;;8.57;6.32;;;;;;;18.85;79.12;97613.09;10421358;28;20032;-56
2022/07/07 21:07:39;;;;;;;9.15;6.00;;;;;;;18.79;78.80;97621.22;10421062;28;20124;-56
2022/07/07 21:12:38;;;;;;;9.27;6.47;;;;;;;18.73;78.99;97629.31;10421479;28;20067;-56
2022/07/07 21:17:37;;;;;;;13.32;7.35;;;;;;;18.66;79.57;97627.78;10420753;28;20052;-56
2022/07/07 21:22:36;;;;;;;12.90;7.53;;;;;;;18.57;80.81;97629.84;10420748;28;20071;-56
2022/07/07 21:27:35;;;;;;;11.52;7.82;;;;;;;18.45;82.44;97634.66;10421143;28;20067;-56
2022/07/07 21:32:36;;;;;;;11.77;7.82;;;;;;;18.37;82.54;97640.19;10420186;28;20147;-55
2022/07/07 21:37:35;;;;;;;10.50;8.18;;;;;;;18.32;83.19;97636.88;10420690;28;20080;-56
2022/07/07 21:42:35;;;;;;;10.63;7.97;;;;;;;18.27;83.29;97644.00;10420229;28;20083;-56
2022/07/07 21:47:34;;;;;;;11.63;8.60;;;;;;;18.11;84.70;97644.53;10420009;28;20488;-56
2022/07/07 21:52:33;;;;;;;11.63;8.65;;;;;;;18.04;85.06;97656.16;10419236;28;20487;-56
2022/07/07 21:57:32;;;;;;;10.15;8.25;;;;;;;17.95;85.34;97654.69;10419455;28;20091;-56
2022/07/07 22:02:31;;;;;;;12.00;7.90;;;;;;;17.92;85.35;97667.06;10418996;28;20144;-55
2022/07/07 22:07:30;;;;;;;12.13;8.57;;;;;;;17.83;85.85;97680.47;10419106;28;20103;-56
2022/07/07 22:12:31;;;;;;;12.27;9.15;;;;;;;17.70;86.41;97669.47;10418092;28;20076;-56
2022/07/07 22:17:32;;;;;;;13.57;9.98;;;;;;;17.65;86.75;97687.13;10415129;28;20075;-56
2022/07/07 22:22:31;;;;;;;13.85;10.80;;;;;;;17.60;87.30;97689.88;10415837;28;20072;-56
2022/07/07 22:27:30;;;;;;;13.80;10.55;;;;;;;17.58;87.64;97688.22;10420353;28;20063;-55
2022/07/07 22:32:29;;;;;;;13.60;10.95;;;;;;;17.51;88.63;97690.16;10421384;28;20116;-56
2022/07/07 22:37:27;;;;;;;;;;;;;;;17.45;89.58;97695.56;10422062;28;20049;-56
2022/07/07 22:42:27;;;;;;;13.37;11.43;;;;;;;17.44;90.05;97686.00;10421046;28;20027;-56
2022/07/07 22:47:26;;;;;;;13.98;10.75;;;;;;;17.47;90.08;97680.66;10421178;28;20040;-56
2022/07/07 22:52:25;;;;;;;14.85;10.45;;;;;;;17.50;89.77;97672.72;10420657;28;20415;-55
2022/07/07 22:57:24;;;;;;;13.30;10.35;;;;;;;17.50;89.52;97668.31;10420489;28;20475;-55
2022/07/07 23:02:23;;;;;;;10.90;9.40;;;;;;;17.49;89.68;97660.47;10420194;28;20032;-55
2022/07/07 23:07:22;;;;;;;;;;;;;;;17.46;89.43;97644.84;10420125;28;20509;-55
2022/07/07 23:12:21;;;;;;;13.27;9.80;;;;;;;17.41;89.25;97647.59;10419857;28;19963;-56